createdAt,value
2018-02-14T00:01:33.631Z,4.27
2018-02-14T00:04:01.939Z,4.73
2018-02-14T00:06:30.229Z,4.43
2018-02-14T00:08:58.822Z,4.70
2018-02-14T00:11:29.365Z,5.00
2018-02-14T00:17:20.261Z,5.03
2018-02-14T00:19:49.897Z,4.70
2018-02-14T00:22:18.418Z,5.60
2018-02-14T00:24:52.199Z,4.60
2018-02-14T00:27:24.310Z,4.30
2018-02-14T00:29:59.261Z,4.57
2018-02-14T00:32:34.902Z,3.83
2018-02-14T00:35:11.366Z,4.43
2018-02-14T00:37:42.277Z,4.20
2018-02-14T00:40:13.488Z,4.43
2018-02-14T00:42:43.357Z,4.00
2018-02-14T00:45:11.903Z,4.33
2018-02-14T00:47:42.713Z,4.27
2018-02-14T00:50:11.158Z,4.00
2018-02-14T00:52:40.788Z,3.73
2018-02-14T00:55:10.540Z,4.43
2018-02-14T00:57:45.430Z,4.10
2018-02-14T01:00:16.940Z,3.90
2018-02-14T01:02:46.732Z,3.90
2018-02-14T01:05:16.166Z,3.97
2018-02-14T01:07:46.573Z,4.00
2018-02-14T01:10:14.900Z,4.40
2018-02-14T01:12:44.406Z,4.43
2018-02-14T01:15:53.408Z,4.63
2018-02-14T01:18:22.989Z,4.77
2018-02-14T01:20:51.718Z,4.60
2018-02-14T01:23:23.369Z,4.10
2018-02-14T01:25:55.520Z,4.17
2018-02-14T01:28:25.712Z,3.90
2018-02-14T01:30:54.371Z,4.20
2018-02-14T01:33:22.681Z,3.83
2018-02-14T01:35:52.073Z,3.97
2018-02-14T01:38:27.142Z,4.00
2018-02-14T01:40:59.161Z,4.13
2018-02-14T01:43:33.935Z,4.83
2018-02-14T01:46:25.158Z,3.93
2018-02-14T01:48:54.000Z,3.77
2018-02-14T01:51:24.039Z,4.10
2018-02-14T01:53:55.159Z,4.33
2018-02-14T01:56:32.207Z,3.70
2018-02-14T01:59:05.191Z,4.30
2018-02-14T02:01:34.793Z,3.90
2018-02-14T02:04:03.114Z,3.83
2018-02-14T02:06:32.200Z,3.53
2018-02-14T02:09:02.963Z,4.10
2018-02-14T02:11:31.283Z,4.77
2018-02-14T02:14:01.097Z,3.73
2018-02-14T02:16:48.502Z,3.80
2018-02-14T02:19:17.423Z,4.33
2018-02-14T02:21:47.341Z,4.43
2018-02-14T02:24:18.282Z,3.83
2018-02-14T02:26:46.743Z,3.83
2018-02-14T02:29:16.116Z,4.10
2018-02-14T02:31:45.286Z,3.80
2018-02-14T02:34:13.907Z,4.57
2018-02-14T02:36:42.498Z,3.93
2018-02-14T02:39:24.227Z,4.10
2018-02-14T02:41:53.281Z,4.23
2018-02-14T02:44:22.217Z,3.70
2018-02-14T02:46:51.181Z,3.60
2018-02-14T02:49:20.944Z,3.80
2018-02-14T02:51:50.243Z,3.37
2018-02-14T02:54:25.339Z,3.87
2018-02-14T02:56:57.072Z,3.93
2018-02-14T02:59:32.925Z,4.27
2018-02-14T03:02:01.478Z,3.70
2018-02-14T03:04:30.503Z,3.53
2018-02-14T03:07:00.974Z,4.43
2018-02-14T03:09:29.638Z,3.70
2018-02-14T03:11:59.197Z,3.77
2018-02-14T03:14:29.011Z,3.90
2018-02-14T03:24:16.881Z,3.73
2018-02-14T03:26:47.201Z,3.50
2018-02-14T03:29:20.231Z,4.37
2018-02-14T03:31:57.350Z,3.87
2018-02-14T03:34:28.691Z,4.23
2018-02-14T03:37:03.147Z,5.50
2018-02-14T03:39:37.597Z,4.97
2018-02-14T03:42:09.014Z,4.50
2018-02-14T03:44:39.934Z,4.60
2018-02-14T03:47:13.008Z,5.03
2018-02-14T03:49:48.250Z,5.37
2018-02-14T03:52:23.524Z,5.30
2018-02-14T03:54:55.540Z,5.30
2018-02-14T03:57:23.818Z,5.30
2018-02-14T03:59:54.188Z,5.77
2018-02-14T04:02:49.358Z,5.37
2018-02-14T04:05:18.208Z,5.10
2018-02-14T04:07:46.875Z,4.80
2018-02-14T04:10:15.968Z,5.10
2018-02-14T04:12:45.716Z,4.90
2018-02-14T04:15:21.395Z,5.40
2018-02-14T04:17:57.409Z,5.10
2018-02-14T04:20:33.895Z,5.07
2018-02-14T04:23:02.484Z,5.83
2018-02-14T04:25:32.026Z,5.30
2018-02-14T04:28:01.828Z,4.60
2018-02-14T04:30:30.144Z,5.20
2018-02-14T04:32:59.665Z,6.13
2018-02-14T04:35:28.741Z,4.87
2018-02-14T04:37:58.114Z,5.23
2018-02-14T04:40:28.401Z,5.10
2018-02-14T04:43:04.612Z,4.80
2018-02-14T04:45:35.707Z,4.67
2018-02-14T04:48:26.603Z,5.33
2018-02-14T04:50:55.466Z,4.90
2018-02-14T04:53:25.612Z,4.93
2018-02-14T04:55:54.269Z,5.23
2018-02-14T04:58:22.580Z,4.23
2018-02-14T05:00:55.726Z,4.67
2018-02-14T05:03:29.447Z,4.77
2018-02-14T05:06:05.506Z,5.07
2018-02-14T05:08:35.860Z,4.80
2018-02-14T05:11:04.359Z,4.30
2018-02-14T05:13:32.676Z,4.90
2018-02-14T05:16:01.666Z,4.67
2018-02-14T05:18:30.945Z,3.87
2018-02-14T05:21:01.160Z,4.27
2018-02-14T05:23:34.206Z,4.87
2018-02-14T05:26:07.330Z,4.50
2018-02-14T05:28:40.107Z,4.53
2018-02-14T05:31:15.444Z,3.73
2018-02-14T05:33:47.166Z,4.37
2018-02-14T05:36:15.460Z,3.50
2018-02-14T05:38:43.754Z,4.17
2018-02-14T05:41:12.363Z,3.80
2018-02-14T05:43:40.660Z,4.10
2018-02-14T05:46:09.996Z,3.77
2018-02-14T05:48:47.755Z,4.23
2018-02-14T05:51:16.040Z,3.90
2018-02-14T05:53:44.689Z,3.47
2018-02-14T05:56:19.832Z,3.80
2018-02-14T05:58:53.717Z,3.63
2018-02-14T06:01:30.978Z,3.57
2018-02-14T06:04:23.672Z,3.63
2018-02-14T06:06:53.496Z,3.83
2018-02-14T06:09:21.793Z,3.63
2018-02-14T06:11:52.770Z,3.57
2018-02-14T06:14:21.995Z,3.70
2018-02-14T06:16:52.098Z,3.80
2018-02-14T06:19:23.915Z,3.40
2018-02-14T06:21:59.826Z,3.70
2018-02-14T06:24:28.363Z,3.60
2018-02-14T06:27:03.228Z,3.13
2018-02-14T06:29:33.464Z,3.60
2018-02-14T06:32:03.333Z,3.57
2018-02-14T06:34:34.520Z,3.57
2018-02-14T06:37:03.871Z,3.63
2018-02-14T06:39:34.792Z,3.70
2018-02-14T06:42:03.851Z,3.37
2018-02-14T06:44:32.728Z,3.83
2018-02-14T06:47:06.796Z,3.93
2018-02-14T06:49:40.351Z,3.40
2018-02-14T06:52:12.715Z,3.73
2018-02-14T06:54:47.027Z,3.63
2018-02-14T06:57:20.131Z,3.77
2018-02-14T06:59:50.738Z,3.93
2018-02-14T07:02:25.160Z,3.70
2018-02-14T07:04:58.355Z,3.47
2018-02-14T07:07:29.685Z,3.93
2018-02-14T07:09:58.329Z,3.77
2018-02-14T07:12:27.234Z,3.40
2018-02-14T07:14:55.567Z,3.73
2018-02-14T07:17:24.722Z,3.93
2018-02-14T07:20:04.716Z,3.60
2018-02-14T07:22:33.727Z,4.40
2018-02-14T07:25:03.871Z,3.77
2018-02-14T07:27:33.388Z,3.43
2018-02-14T07:30:04.370Z,3.60
2018-02-14T07:32:33.730Z,3.70
2018-02-14T07:35:37.784Z,3.63
2018-02-14T07:38:06.341Z,3.70
2018-02-14T07:40:35.705Z,4.10
2018-02-14T07:43:04.189Z,4.80
2018-02-14T07:45:33.282Z,4.03
2018-02-14T07:48:03.058Z,4.37
2018-02-14T07:50:31.375Z,4.10
2018-02-14T07:52:59.970Z,4.93
2018-02-14T07:55:28.332Z,4.00
2018-02-14T07:57:59.818Z,4.30
2018-02-14T08:00:32.588Z,4.27
2018-02-14T08:03:06.633Z,4.43
2018-02-14T08:05:40.473Z,4.07
2018-02-14T08:08:15.350Z,4.83
2018-02-14T08:10:50.025Z,5.67
2018-02-14T08:13:18.476Z,4.70
2018-02-14T08:15:47.139Z,5.77
2018-02-14T08:18:15.524Z,5.90
2018-02-14T08:20:44.533Z,6.70
2018-02-14T08:23:13.702Z,6.60
2018-02-14T08:25:47.677Z,6.57
2018-02-14T08:28:21.735Z,7.00
2018-02-14T08:30:51.820Z,6.50
2018-02-14T08:33:24.732Z,5.80
2018-02-14T08:35:53.341Z,5.30
2018-02-14T08:38:21.721Z,5.67
2018-02-14T08:40:50.019Z,5.87
2018-02-14T08:43:19.481Z,5.63
2018-02-14T08:45:48.887Z,5.67
2018-02-14T08:48:19.718Z,4.87
2018-02-14T08:51:28.880Z,4.80
2018-02-14T08:54:02.662Z,4.23
2018-02-14T08:56:38.915Z,3.97
2018-02-14T08:59:13.089Z,4.50
2018-02-14T09:01:45.292Z,3.80
2018-02-14T09:04:17.312Z,4.40
2018-02-14T09:06:51.971Z,4.10
2018-02-14T09:09:27.430Z,3.90
2018-02-14T09:11:58.551Z,4.07
2018-02-14T09:14:30.867Z,4.40
2018-02-14T09:17:00.797Z,3.97
2018-02-14T09:19:36.970Z,3.60
2018-02-14T09:22:10.450Z,3.03
2018-02-14T09:24:40.479Z,3.60
2018-02-14T09:27:17.484Z,3.60
2018-02-14T09:29:51.225Z,4.13
2018-02-14T09:32:23.500Z,4.20
2018-02-14T09:34:53.651Z,3.33
2018-02-14T09:38:04.313Z,4.07
2018-02-14T09:40:36.284Z,3.20
2018-02-14T09:43:07.811Z,3.83
2018-02-14T09:45:45.106Z,3.90
2018-02-14T09:48:17.168Z,3.67
2018-02-14T09:50:55.436Z,3.80
2018-02-14T09:53:25.792Z,4.03
2018-02-14T09:56:00.253Z,3.90
2018-02-14T09:58:32.013Z,4.30
2018-02-14T10:01:02.694Z,3.63
2018-02-14T10:03:33.571Z,3.93
2018-02-14T10:06:04.614Z,3.60
2018-02-14T10:08:56.842Z,3.73
2018-02-14T10:11:25.661Z,3.87
2018-02-14T10:13:56.570Z,4.10
2018-02-14T10:16:28.719Z,4.33
2018-02-14T10:18:58.051Z,3.23
2018-02-14T10:21:28.637Z,3.60
2018-02-14T10:23:58.039Z,3.90
2018-02-14T10:26:27.898Z,3.53
2018-02-14T10:28:56.414Z,3.50
2018-02-14T10:31:28.097Z,3.40
2018-02-14T10:34:00.710Z,3.83
2018-02-14T10:36:33.984Z,3.47
2018-02-14T10:39:11.044Z,3.43
2018-02-14T10:41:41.291Z,3.37
2018-02-14T10:44:09.664Z,3.63
2018-02-14T10:46:38.749Z,3.10
2018-02-14T10:49:07.526Z,3.27
2018-02-14T10:51:35.872Z,3.20
2018-02-14T10:54:44.752Z,2.60
2018-02-14T10:57:14.502Z,3.00
2018-02-14T10:59:43.940Z,2.87
2018-02-14T11:02:12.758Z,3.57
2018-02-14T11:04:49.958Z,3.83
2018-02-14T11:07:20.487Z,3.30
2018-02-14T11:09:50.749Z,4.30
2018-02-14T11:12:19.920Z,3.30
2018-02-14T11:14:51.447Z,2.63
2018-02-14T11:17:22.442Z,3.30
2018-02-14T11:19:51.527Z,3.33
2018-02-14T11:22:22.591Z,3.90
2018-02-14T11:24:51.184Z,3.30
2018-02-14T11:27:19.670Z,3.60
2018-02-14T11:29:48.663Z,3.50
2018-02-14T11:32:19.683Z,3.10
2018-02-14T11:34:49.241Z,3.67
2018-02-14T11:37:18.045Z,3.43
2018-02-14T11:39:48.228Z,4.10
2018-02-14T11:42:16.887Z,3.47
2018-02-14T11:44:45.187Z,2.93
2018-02-14T11:47:16.129Z,2.93
2018-02-14T11:49:45.725Z,3.30
2018-02-14T11:52:14.723Z,3.07
2018-02-14T11:55:26.509Z,3.20
2018-02-14T11:57:54.996Z,3.63
2018-02-14T12:00:27.770Z,3.27
2018-02-14T12:02:58.713Z,3.50
2018-02-14T12:05:29.774Z,3.43
2018-02-14T12:08:01.279Z,3.53
2018-02-14T12:10:29.578Z,2.83
2018-02-14T12:12:59.936Z,2.70
2018-02-14T12:15:28.645Z,2.47
2018-02-14T12:17:56.928Z,2.80
2018-02-14T12:20:29.723Z,3.47
2018-02-14T12:23:01.930Z,3.50
2018-02-14T12:25:32.487Z,2.97
2018-02-14T12:28:06.181Z,3.20
2018-02-14T12:30:37.507Z,2.83
2018-02-14T12:33:08.375Z,3.00
2018-02-14T12:35:37.607Z,2.70
2018-02-14T12:38:08.587Z,2.67
2018-02-14T12:40:37.553Z,3.27
2018-02-14T12:43:06.295Z,3.00
2018-02-14T12:45:34.821Z,3.00
2018-02-14T12:48:04.472Z,3.20
2018-02-14T12:50:41.096Z,3.93
2018-02-14T12:53:14.580Z,3.03
2018-02-14T12:55:51.073Z,3.10
2018-02-14T12:58:20.308Z,3.07
2018-02-14T13:00:49.189Z,2.40
2018-02-14T13:03:17.480Z,2.77
2018-02-14T13:05:45.934Z,2.40
2018-02-14T13:08:14.222Z,2.83
2018-02-14T13:10:43.794Z,2.47
2018-02-14T13:13:14.228Z,2.60
2018-02-14T13:15:50.475Z,2.50
2018-02-14T13:18:23.293Z,3.03
2018-02-14T13:20:54.456Z,3.00
2018-02-14T13:23:23.357Z,2.30
2018-02-14T13:25:52.846Z,2.40
2018-02-14T13:28:21.383Z,2.50
2018-02-14T13:30:49.659Z,2.60
2018-02-14T13:33:20.913Z,2.83
2018-02-14T13:35:50.276Z,2.40
2018-02-14T13:38:19.568Z,2.27
2018-02-14T13:41:12.689Z,2.20
2018-02-14T13:43:41.960Z,2.50
2018-02-14T13:46:16.273Z,2.40
2018-02-14T13:48:46.357Z,2.10
2018-02-14T13:51:14.648Z,2.43
2018-02-14T13:53:44.165Z,2.50
2018-02-14T13:56:19.051Z,2.17
2018-02-14T13:58:49.188Z,2.27
2018-02-14T14:01:17.636Z,2.17
2018-02-14T14:03:47.562Z,2.37
2018-02-14T14:06:16.267Z,2.10
2018-02-14T14:08:45.630Z,2.23
2018-02-14T14:11:15.141Z,2.20
2018-02-14T14:13:45.611Z,2.17
2018-02-14T14:16:28.846Z,2.00
2018-02-14T14:18:57.154Z,2.13
2018-02-14T14:21:31.534Z,2.70
2018-02-14T14:24:06.597Z,2.20
2018-02-14T14:26:39.878Z,2.47
2018-02-14T14:29:14.905Z,2.33
2018-02-14T14:31:49.144Z,2.50
2018-02-14T14:34:20.430Z,2.30
2018-02-14T14:36:50.491Z,3.43
2018-02-14T14:39:20.368Z,2.70
2018-02-14T14:41:51.576Z,3.63
2018-02-14T14:44:19.858Z,2.33
2018-02-14T14:46:49.820Z,2.70
2018-02-14T14:49:20.734Z,2.37
2018-02-14T14:51:52.414Z,2.60
2018-02-14T14:54:20.715Z,3.00
2018-02-14T14:56:48.978Z,3.03
2018-02-14T14:59:18.507Z,2.70
2018-02-14T15:01:46.808Z,2.63
2018-02-14T15:04:18.133Z,2.50
2018-02-14T15:06:46.422Z,2.80
2018-02-14T15:09:15.015Z,2.93
2018-02-14T15:11:44.079Z,2.13
2018-02-14T15:14:13.727Z,2.23
2018-02-14T15:16:44.613Z,2.63
2018-02-14T15:19:20.070Z,2.50
2018-02-14T15:21:54.476Z,2.60
2018-02-14T15:24:24.853Z,2.07
2018-02-14T15:26:53.836Z,2.30
2018-02-14T15:29:23.052Z,2.17
2018-02-14T15:31:51.730Z,2.57
2018-02-14T15:34:19.993Z,3.23
2018-02-14T15:36:52.365Z,2.17
2018-02-14T15:39:26.067Z,2.53
2018-02-14T15:41:54.338Z,3.00
2018-02-14T15:45:00.632Z,3.10
2018-02-14T15:47:30.239Z,3.23
2018-02-14T15:50:00.447Z,2.80
2018-02-14T15:52:28.754Z,2.67
2018-02-14T15:54:57.068Z,2.80
2018-02-14T15:57:25.381Z,2.70
2018-02-14T15:59:56.626Z,2.90
2018-02-14T16:02:25.148Z,3.03
2018-02-14T16:04:53.458Z,2.73
2018-02-14T16:07:23.279Z,3.40
2018-02-14T16:09:51.935Z,2.70
2018-02-14T16:12:35.046Z,2.50
2018-02-14T16:15:04.160Z,3.00
2018-02-14T16:17:33.113Z,2.87
2018-02-14T16:20:01.773Z,2.50
2018-02-14T16:22:31.289Z,2.73
2018-02-14T16:25:05.040Z,2.93
2018-02-14T16:27:39.360Z,3.10
2018-02-14T16:30:12.613Z,3.40
2018-02-14T16:32:49.708Z,3.03
2018-02-14T16:35:24.071Z,3.20
2018-02-14T16:37:55.007Z,2.93
2018-02-14T16:40:27.487Z,3.00
2018-02-14T16:42:56.346Z,3.07
2018-02-14T16:45:25.349Z,3.27
2018-02-14T16:47:56.252Z,3.27
2018-02-14T16:50:24.558Z,3.10
2018-02-14T16:52:57.471Z,3.10
2018-02-14T16:55:34.227Z,3.23
2018-02-14T16:58:09.789Z,2.77
2018-02-14T17:00:39.315Z,2.90
2018-02-14T17:03:14.069Z,3.33
2018-02-14T17:05:46.935Z,3.23
2018-02-14T17:08:15.462Z,3.23
2018-02-14T17:10:44.096Z,3.30
2018-02-14T17:13:39.920Z,3.43
2018-02-14T17:16:08.188Z,3.03
2018-02-14T17:18:39.437Z,3.20
2018-02-14T17:21:11.626Z,3.30
2018-02-14T17:23:42.140Z,3.57
2018-02-14T17:26:10.416Z,2.87
2018-02-14T17:28:41.055Z,3.07
2018-02-14T17:31:09.547Z,3.30
2018-02-14T17:33:39.100Z,3.10
2018-02-14T17:36:08.535Z,2.93
2018-02-14T17:38:40.930Z,3.00
2018-02-14T17:41:16.285Z,3.07
2018-02-14T17:43:57.992Z,2.90
2018-02-14T17:46:29.138Z,2.70
2018-02-14T17:49:00.333Z,2.73
2018-02-14T17:51:36.220Z,2.73
2018-02-14T17:54:09.117Z,2.40
2018-02-14T17:56:44.893Z,2.87
2018-02-14T17:59:19.325Z,2.27
2018-02-14T18:01:58.129Z,2.93
2018-02-14T18:04:32.765Z,2.97
2018-02-14T18:07:06.319Z,3.00
2018-02-14T18:09:39.005Z,2.50
2018-02-14T18:12:07.770Z,2.70
2018-02-14T18:14:37.902Z,2.97
2018-02-14T18:17:06.196Z,2.90
2018-02-14T18:19:34.512Z,3.03
2018-02-14T18:22:03.824Z,2.80
2018-02-14T18:24:37.363Z,3.33
2018-02-14T18:27:11.123Z,2.87
2018-02-14T18:29:45.156Z,3.00
2018-02-14T18:32:17.277Z,3.03
2018-02-14T18:34:50.897Z,3.93
2018-02-14T18:37:22.724Z,3.40
2018-02-14T18:39:51.780Z,3.30
2018-02-14T18:42:20.056Z,3.10
2018-02-14T18:45:04.438Z,3.07
2018-02-14T18:47:36.129Z,2.70
2018-02-14T18:50:05.336Z,3.17
2018-02-14T18:52:34.784Z,3.37
2018-02-14T18:55:03.104Z,3.20
2018-02-14T18:57:31.399Z,3.90
2018-02-14T19:00:30.238Z,3.60
2018-02-14T19:03:04.922Z,3.33
2018-02-14T19:05:37.773Z,3.43
2018-02-14T19:08:11.712Z,3.20
2018-02-14T19:10:44.029Z,3.40
2018-02-14T19:13:17.418Z,3.73
2018-02-14T19:16:08.692Z,3.00
2018-02-14T19:18:38.071Z,3.13
2018-02-14T19:21:08.520Z,4.07
2018-02-14T19:23:37.392Z,3.33
2018-02-14T19:26:06.144Z,3.63
2018-02-14T19:28:35.223Z,3.40
2018-02-14T19:31:39.853Z,3.93
2018-02-14T19:34:14.408Z,3.30
2018-02-14T19:36:52.372Z,3.90
2018-02-14T19:39:25.392Z,3.57
2018-02-14T19:42:01.306Z,3.60
2018-02-14T19:44:35.054Z,3.97
2018-02-14T19:47:06.141Z,3.97
2018-02-14T19:49:40.081Z,4.13
2018-02-14T19:52:11.859Z,3.83
2018-02-14T19:54:48.250Z,3.60
2018-02-14T19:57:24.887Z,3.70
2018-02-14T19:59:57.242Z,3.50
2018-02-14T20:02:31.997Z,3.60
2018-02-14T20:05:04.294Z,3.57
2018-02-14T20:07:39.943Z,3.37
2018-02-14T20:10:13.553Z,3.13
2018-02-14T20:12:46.808Z,3.10
2018-02-14T20:15:21.441Z,3.47
2018-02-14T20:17:53.037Z,3.30
2018-02-14T20:20:22.349Z,3.40
2018-02-14T20:22:52.113Z,3.07
2018-02-14T20:25:22.628Z,3.00
2018-02-14T20:27:50.935Z,3.47
2018-02-14T20:30:19.527Z,3.03
2018-02-14T20:33:08.952Z,3.40
2018-02-14T20:35:40.304Z,3.20
2018-02-14T20:38:11.092Z,3.20
2018-02-14T20:40:39.375Z,3.10
2018-02-14T20:43:12.469Z,2.77
2018-02-14T20:45:46.027Z,3.70
2018-02-14T20:48:31.554Z,3.10
2018-02-14T20:51:01.019Z,3.13
2018-02-14T20:53:31.682Z,2.93
2018-02-14T20:56:06.279Z,3.20
2018-02-14T20:58:40.466Z,2.87
2018-02-14T21:01:14.142Z,2.70
2018-02-14T21:04:05.307Z,3.10
2018-02-14T21:06:35.784Z,3.23
2018-02-14T21:09:05.198Z,3.20
2018-02-14T21:11:35.586Z,3.23
2018-02-14T21:14:09.893Z,3.30
2018-02-14T21:16:40.152Z,3.73
2018-02-14T21:19:12.219Z,2.90
2018-02-14T21:21:40.984Z,3.33
2018-02-14T21:24:09.514Z,3.10
2018-02-14T21:26:37.758Z,3.20
2018-02-14T21:29:06.383Z,3.43
2018-02-14T21:31:38.146Z,3.23
2018-02-14T21:34:13.252Z,3.40
2018-02-14T21:36:41.691Z,3.50
2018-02-14T21:39:11.456Z,3.30
2018-02-14T21:41:39.733Z,3.10
2018-02-14T21:44:08.664Z,2.80
2018-02-14T21:46:37.252Z,2.60
2018-02-14T21:49:10.168Z,2.87
2018-02-14T21:51:41.846Z,2.73
2018-02-14T21:54:14.936Z,2.67
2018-02-14T21:56:49.084Z,2.90
2018-02-14T21:59:23.201Z,2.80
2018-02-14T22:01:58.325Z,3.07
2018-02-14T22:07:49.918Z,3.00
2018-02-14T22:10:18.205Z,2.70
2018-02-14T22:12:50.356Z,2.53
2018-02-14T22:15:22.478Z,3.10
2018-02-14T22:17:56.827Z,2.50
2018-02-14T22:20:32.401Z,2.90
2018-02-14T22:23:04.754Z,2.60
2018-02-14T22:25:37.240Z,2.87
2018-02-14T22:28:07.145Z,3.13
2018-02-14T22:30:35.805Z,3.07
2018-02-14T22:33:05.672Z,2.70
2018-02-14T22:35:35.432Z,2.60
2018-02-14T22:38:03.841Z,2.90
2018-02-14T22:40:36.388Z,2.60
2018-02-14T22:43:10.302Z,2.67
2018-02-14T22:45:40.632Z,2.57
2018-02-14T22:48:11.994Z,3.03
2018-02-14T22:50:42.841Z,3.30
2018-02-14T22:53:11.288Z,2.57
2018-02-14T22:55:40.392Z,3.43
2018-02-14T22:58:09.107Z,3.37
2018-02-14T23:00:39.385Z,3.20
2018-02-14T23:03:08.895Z,3.20
2018-02-14T23:05:42.961Z,3.20
2018-02-14T23:08:17.119Z,2.90
2018-02-14T23:10:51.571Z,3.40
2018-02-14T23:13:23.448Z,3.57
2018-02-14T23:15:58.015Z,3.23
2018-02-14T23:18:26.421Z,3.30
2018-02-14T23:21:12.416Z,3.20
2018-02-14T23:23:40.699Z,3.27
2018-02-14T23:26:09.759Z,3.27
2018-02-14T23:28:43.135Z,3.67
2018-02-14T23:31:14.124Z,3.33
2018-02-14T23:33:44.369Z,3.30
2018-02-14T23:36:14.405Z,3.80
2018-02-14T23:38:43.493Z,3.83
2018-02-14T23:41:12.322Z,3.93
2018-02-14T23:43:42.668Z,3.73
2018-02-14T23:46:11.278Z,3.77
2018-02-14T23:48:44.450Z,3.90
2018-02-14T23:51:16.325Z,3.67
2018-02-14T23:53:48.169Z,3.73
2018-02-14T23:56:21.462Z,4.30
2018-02-14T23:58:53.020Z,4.23
